KHJO

Hanford Municipal Airport

Hanford, California, USA
METAR KHJO 181353Z AUTO 00000KT 7SM OVC110 09/09 A3026 RMK AO2 SLP250 T00940089
Observed Flight Rules
Jan-18 @ 13:53 UTC (47 minutes ago) Visual Flight Rules
Visibility Clouds
7 miles
  • Overcast at 11,000' AGL
Temperatures Readings
Current 9°C / 48°F
Dewpoint 9°C / 48°F
Humidity 100%
Altimeter 30.26" Hg
Pressure 1025 hPa
Elevation 74
METAR KHJO 181353Z AUTO 00000KT 7SM OVC110 09/09 A3026 RMK AO2 SLP250 T00940089
Observed Flight Rules
Jan-18 @ 13:53 UTC
(47 minutes ago)
VFR
Clouds
  • Overcast at 11,000' AGL
Temperature Dewpoint
9°C / 48°F 9°C / 48°F
Humidity Altimeter Pressure
100% 30.26" Hg 1025 hPa